Boi Taull, Spain
Current Conditions -  °F | °C
As of 11:00 PM on Tuesday 25 Nov 2014 (Local Time) from LFBT Reporting Station
Haze Haze  
Wind Chill: 55°   Ceiling: 2000
Heat Index: 55°   Visibility: 2.7mi
Dew Point: 54°   Wind: 0mph
Humidity: 94%   Direction: NA
Pressure: 30"   Gusts: NA
Location:  42.52°N, 0.85°E
Report Text: LFBT 252200Z AUTO 00000KT 4400 BR FEW005/// OVC020/// ///TCU13/12 Q1016
Loading
Personal Weather Stations






























Interactive Weather Map New forecast layout! Learn more

10-Day Weather Forecast

Advertisements
Track Severe Weather on mobile